createdAt,value
2023-02-02T00:00:11.177Z,2.05
2023-02-02T00:02:43.357Z,2.06
2023-02-02T00:05:15.383Z,2.07
2023-02-02T00:07:47.452Z,2.07
2023-02-02T00:10:19.541Z,2.06
2023-02-02T00:12:51.486Z,2.08
2023-02-02T00:15:23.813Z,2.07
2023-02-02T00:17:56.338Z,2.05
2023-02-02T00:20:28.545Z,2.02
2023-02-02T00:23:00.345Z,1.97
2023-02-02T00:25:32.612Z,1.95
2023-02-02T00:28:05.149Z,1.96
2023-02-02T00:30:37.312Z,1.94
2023-02-02T00:33:10.345Z,1.92
2023-02-02T00:35:43.084Z,1.89
2023-02-02T00:38:15.193Z,1.77
2023-02-02T00:40:47.555Z,1.68
2023-02-02T00:43:20.179Z,1.64
2023-02-02T00:45:52.438Z,1.50
2023-02-02T00:48:26.128Z,1.46
2023-02-02T00:50:58.052Z,1.42
2023-02-02T00:53:30.230Z,1.47
2023-02-02T00:56:02.662Z,1.47
2023-02-02T00:58:34.626Z,1.56
2023-02-02T01:01:06.687Z,1.60
2023-02-02T01:03:39.127Z,1.66
2023-02-02T01:06:11.305Z,1.73
2023-02-02T01:08:43.563Z,1.75
2023-02-02T01:11:16.459Z,1.74
2023-02-02T01:13:48.548Z,1.67
2023-02-02T01:16:22.698Z,1.61
2023-02-02T01:18:54.793Z,1.60
2023-02-02T01:21:27.170Z,1.62
2023-02-02T01:23:59.287Z,1.64
2023-02-02T01:26:31.504Z,1.65
2023-02-02T01:29:03.633Z,1.69
2023-02-02T01:31:35.829Z,1.70
2023-02-02T01:34:07.948Z,1.69
2023-02-02T01:36:40.020Z,1.71
2023-02-02T01:39:12.045Z,1.70
2023-02-02T01:41:44.157Z,1.59
2023-02-02T01:44:51.506Z,1.50
2023-02-02T01:47:26.444Z,1.44
2023-02-02T01:49:58.744Z,1.40
2023-02-02T01:52:35.861Z,1.37
2023-02-02T01:55:11.305Z,1.34
2023-02-02T01:58:02.394Z,1.33
2023-02-02T02:00:34.741Z,1.38
2023-02-02T02:03:09.647Z,1.40
2023-02-02T02:05:47.941Z,1.41
2023-02-02T02:08:29.031Z,1.41
2023-02-02T02:11:01.587Z,1.42
2023-02-02T02:13:53.177Z,1.46
2023-02-02T02:16:33.954Z,1.49
2023-02-02T02:19:09.028Z,1.49
2023-02-02T02:22:16.525Z,1.49
2023-02-02T02:25:13.185Z,1.47
2023-02-02T02:27:51.088Z,1.49
2023-02-02T02:30:53.615Z,1.49
2023-02-02T02:33:28.849Z,1.53
2023-02-02T02:36:09.980Z,1.49
2023-02-02T02:38:50.570Z,1.48
2023-02-02T02:41:28.265Z,1.48
2023-02-02T02:44:06.865Z,1.48
2023-02-02T02:46:40.159Z,1.48
2023-02-02T02:49:14.475Z,1.46
2023-02-02T02:51:49.468Z,1.47
2023-02-02T02:54:31.717Z,1.47
2023-02-02T02:57:20.084Z,1.45
2023-02-02T03:00:07.481Z,1.44
2023-02-02T03:02:45.479Z,1.45
2023-02-02T03:05:29.598Z,1.48
2023-02-02T03:08:10.699Z,1.47
2023-02-02T03:10:45.002Z,1.46
2023-02-02T03:13:18.223Z,1.44
2023-02-02T03:15:50.492Z,1.45
2023-02-02T03:18:25.964Z,1.42
2023-02-02T03:20:58.513Z,1.42
2023-02-02T03:23:31.058Z,1.45
2023-02-02T03:26:03.362Z,1.44
2023-02-02T03:28:36.439Z,1.41
2023-02-02T03:31:09.014Z,1.41
2023-02-02T03:33:41.275Z,1.40
2023-02-02T03:36:13.351Z,1.46
2023-02-02T03:38:46.201Z,1.45
2023-02-02T03:41:18.909Z,1.46
2023-02-02T03:43:51.753Z,1.45
2023-02-02T03:46:24.257Z,1.46
2023-02-02T03:48:56.429Z,1.47
2023-02-02T03:51:28.508Z,1.50
2023-02-02T03:54:00.792Z,1.50
2023-02-02T03:56:33.123Z,1.50
2023-02-02T03:59:05.893Z,1.49
2023-02-02T04:01:38.673Z,1.46
2023-02-02T04:04:11.252Z,1.45
2023-02-02T04:06:43.519Z,1.47
2023-02-02T04:09:16.697Z,1.46
2023-02-02T04:11:48.994Z,1.45
2023-02-02T04:14:21.423Z,1.45
2023-02-02T04:16:53.798Z,1.48
2023-02-02T04:19:26.664Z,1.47
2023-02-02T04:21:59.048Z,1.49
2023-02-02T04:24:31.679Z,1.50
2023-02-02T04:27:03.831Z,1.50
2023-02-02T04:29:35.949Z,1.52
2023-02-02T04:32:09.191Z,1.50
2023-02-02T04:34:41.479Z,1.51
2023-02-02T04:37:14.131Z,1.50
2023-02-02T04:39:46.265Z,1.51
2023-02-02T04:42:18.775Z,1.48
2023-02-02T04:44:51.192Z,1.47
2023-02-02T04:47:23.509Z,1.47
2023-02-02T04:49:55.684Z,1.49
2023-02-02T04:52:27.896Z,1.50
2023-02-02T04:55:00.814Z,1.52
2023-02-02T04:57:33.798Z,1.53
2023-02-02T05:00:06.592Z,1.52
2023-02-02T05:02:41.566Z,1.54
2023-02-02T05:05:15.224Z,1.54
2023-02-02T05:07:47.298Z,1.54
2023-02-02T05:10:19.882Z,1.56
2023-02-02T05:12:54.311Z,1.54
2023-02-02T05:15:27.021Z,1.53
2023-02-02T05:17:59.301Z,1.56
2023-02-02T05:20:31.443Z,1.60
2023-02-02T05:23:03.639Z,1.63
2023-02-02T05:25:36.132Z,1.65
2023-02-02T05:28:08.106Z,1.67
2023-02-02T05:30:41.892Z,1.71
2023-02-02T05:33:14.541Z,1.74
2023-02-02T05:35:51.474Z,1.80
2023-02-02T05:38:23.926Z,1.77
2023-02-02T05:40:55.914Z,1.79
2023-02-02T05:43:29.395Z,1.77
2023-02-02T05:46:03.144Z,1.81
2023-02-02T05:48:36.557Z,1.82
2023-02-02T05:51:14.403Z,1.83
2023-02-02T05:53:47.532Z,1.84
2023-02-02T05:56:19.585Z,1.82
2023-02-02T05:58:52.037Z,1.84
2023-02-02T06:01:25.773Z,1.90
2023-02-02T06:03:59.003Z,1.84
2023-02-02T06:06:32.109Z,1.84
2023-02-02T06:09:08.042Z,1.82
2023-02-02T06:11:41.093Z,1.81
2023-02-02T06:14:13.633Z,1.82
2023-02-02T06:16:46.526Z,1.80
2023-02-02T06:19:19.314Z,1.78
2023-02-02T06:21:51.473Z,1.81
2023-02-02T06:24:24.878Z,1.79
2023-02-02T06:26:57.456Z,1.80
2023-02-02T06:29:29.981Z,1.82
2023-02-02T06:32:03.613Z,1.87
2023-02-02T06:34:36.872Z,1.92
2023-02-02T06:37:09.379Z,1.97
2023-02-02T06:39:42.278Z,2.01
2023-02-02T06:42:21.768Z,2.07
2023-02-02T06:44:51.521Z,2.11
2023-02-02T06:47:26.543Z,2.16
2023-02-02T06:49:59.030Z,2.22
2023-02-02T06:52:33.064Z,2.23
2023-02-02T06:55:05.350Z,2.32
2023-02-02T06:57:37.738Z,2.35
2023-02-02T07:00:10.838Z,2.42
2023-02-02T07:02:47.022Z,2.46
2023-02-02T07:05:24.804Z,2.61
2023-02-02T07:07:57.488Z,2.65
2023-02-02T07:11:09.440Z,2.70
2023-02-02T07:13:05.821Z,2.72
2023-02-02T07:15:41.343Z,2.74
2023-02-02T07:18:13.723Z,2.75
2023-02-02T07:20:46.131Z,2.77
2023-02-02T07:23:18.865Z,2.80
2023-02-02T07:25:51.482Z,2.83
2023-02-02T07:28:24.037Z,2.84
2023-02-02T07:30:57.179Z,2.87
2023-02-02T07:33:29.847Z,2.89
2023-02-02T07:36:03.412Z,2.93
2023-02-02T07:38:35.879Z,2.93
2023-02-02T07:41:08.917Z,2.95
2023-02-02T07:43:41.605Z,2.94
2023-02-02T07:46:14.533Z,2.95
2023-02-02T07:48:47.765Z,2.93
2023-02-02T07:51:20.780Z,2.91
2023-02-02T07:53:55.186Z,2.93
2023-02-02T07:56:29.173Z,2.93
2023-02-02T07:59:01.510Z,2.94
2023-02-02T08:01:33.967Z,2.98
2023-02-02T08:04:07.133Z,3.00
2023-02-02T08:06:40.714Z,3.07
2023-02-02T08:09:12.817Z,3.16
2023-02-02T08:11:44.965Z,3.25
2023-02-02T08:14:17.180Z,3.26
2023-02-02T08:16:49.658Z,3.31
2023-02-02T08:19:22.648Z,3.27
2023-02-02T08:21:55.792Z,3.30
2023-02-02T08:24:27.847Z,3.35
2023-02-02T08:27:00.135Z,3.34
2023-02-02T08:29:32.596Z,3.37
2023-02-02T08:32:05.841Z,3.38
2023-02-02T08:34:38.765Z,3.45
2023-02-02T08:37:11.422Z,3.49
2023-02-02T08:39:44.391Z,3.55
2023-02-02T08:42:16.983Z,3.56
2023-02-02T08:46:01.460Z,3.60
2023-02-02T08:47:23.917Z,3.62
2023-02-02T08:49:56.827Z,3.63
2023-02-02T08:52:29.113Z,3.62
2023-02-02T08:55:01.259Z,3.59
2023-02-02T08:57:34.954Z,3.59
2023-02-02T09:00:08.665Z,3.57
2023-02-02T09:02:40.987Z,3.57
2023-02-02T09:05:13.077Z,3.52
2023-02-02T09:07:46.169Z,3.52
2023-02-02T09:10:19.125Z,3.55
2023-02-02T09:12:51.163Z,3.57
2023-02-02T09:15:23.773Z,3.58
2023-02-02T09:17:56.861Z,3.64
2023-02-02T09:20:29.776Z,3.67
2023-02-02T09:23:02.127Z,3.58
2023-02-02T09:25:34.664Z,3.60
2023-02-02T09:28:07.064Z,3.63
2023-02-02T09:30:39.816Z,3.55
2023-02-02T09:33:12.212Z,3.47
2023-02-02T09:35:44.339Z,3.46
2023-02-02T09:38:16.932Z,3.46
2023-02-02T09:40:49.161Z,3.47
2023-02-02T09:43:42.737Z,3.60
2023-02-02T09:46:27.146Z,3.84
2023-02-02T09:49:05.269Z,4.07
2023-02-02T09:51:41.031Z,4.21
2023-02-02T09:54:24.937Z,4.26
2023-02-02T09:57:00.248Z,4.17
2023-02-02T09:59:40.642Z,4.16
2023-02-02T10:02:32.805Z,4.15
2023-02-02T10:05:09.697Z,4.14
2023-02-02T10:07:45.804Z,4.15
2023-02-02T10:10:21.049Z,4.18
2023-02-02T10:12:57.255Z,4.01
2023-02-02T10:15:38.637Z,3.91
2023-02-02T10:18:22.827Z,3.83
2023-02-02T10:21:01.280Z,3.84
2023-02-02T10:23:36.677Z,3.81
2023-02-02T10:26:20.747Z,3.84
2023-02-02T10:29:12.303Z,3.92
2023-02-02T10:31:54.371Z,4.04
2023-02-02T10:34:44.488Z,4.19
2023-02-02T10:37:38.139Z,4.29
2023-02-02T10:40:25.649Z,4.42
2023-02-02T10:43:21.676Z,4.49
2023-02-02T10:45:55.241Z,4.51
2023-02-02T10:48:36.431Z,4.49
2023-02-02T10:51:14.657Z,4.47
2023-02-02T10:53:50.461Z,4.48
2023-02-02T10:56:28.923Z,4.40
2023-02-02T10:59:20.695Z,4.40
2023-02-02T11:01:53.587Z,4.43
2023-02-02T11:04:44.651Z,4.53
2023-02-02T11:07:18.418Z,4.64
2023-02-02T11:09:51.371Z,4.76
2023-02-02T11:12:39.048Z,4.86
2023-02-02T11:15:14.210Z,5.01
2023-02-02T11:17:46.954Z,5.15
2023-02-02T11:20:28.237Z,5.30
2023-02-02T11:23:05.517Z,5.32
2023-02-02T11:25:40.017Z,5.34
2023-02-02T11:28:25.029Z,5.36
2023-02-02T11:30:58.312Z,5.39
2023-02-02T11:33:34.572Z,5.34
2023-02-02T11:36:09.940Z,5.35
2023-02-02T11:38:42.229Z,5.32
2023-02-02T11:41:15.777Z,5.29
2023-02-02T11:43:54.117Z,5.19
2023-02-02T11:46:29.587Z,5.07
2023-02-02T11:49:06.068Z,4.87
2023-02-02T11:51:38.996Z,4.72
2023-02-02T11:54:20.381Z,4.62
2023-02-02T11:56:55.674Z,4.54
2023-02-02T11:59:31.326Z,4.50
2023-02-02T12:02:16.002Z,4.55
2023-02-02T12:04:48.895Z,4.52
2023-02-02T12:07:32.272Z,4.76
2023-02-02T12:10:07.284Z,4.61
2023-02-02T12:12:52.382Z,4.64
2023-02-02T12:15:31.056Z,4.61
2023-02-02T12:18:09.314Z,4.52
2023-02-02T12:20:53.611Z,4.41
2023-02-02T12:23:42.547Z,4.37
2023-02-02T12:26:24.367Z,4.27
2023-02-02T12:29:19.128Z,4.20
2023-02-02T12:32:08.960Z,4.15
2023-02-02T12:34:53.328Z,4.30
2023-02-02T12:37:37.645Z,4.07
2023-02-02T12:40:43.124Z,4.00
2023-02-02T12:43:41.370Z,3.92
2023-02-02T12:46:25.866Z,3.88
2023-02-02T12:49:24.079Z,3.78
2023-02-02T12:52:14.556Z,3.71
2023-02-02T12:55:14.424Z,3.63
2023-02-02T12:57:53.195Z,3.56
2023-02-02T13:00:51.250Z,3.51
2023-02-02T13:03:43.155Z,3.45
2023-02-02T13:06:30.537Z,3.42
2023-02-02T13:09:19.906Z,3.38
2023-02-02T13:12:12.629Z,3.36
2023-02-02T13:14:57.926Z,3.35
2023-02-02T13:17:44.922Z,3.32
2023-02-02T13:20:31.830Z,3.32
2023-02-02T13:23:12.953Z,3.27
2023-02-02T13:25:51.296Z,3.27
2023-02-02T13:28:35.743Z,3.28
2023-02-02T13:31:14.281Z,3.28
2023-02-02T13:33:50.007Z,3.26
2023-02-02T13:36:30.054Z,3.25
2023-02-02T13:39:05.477Z,3.15
2023-02-02T13:41:38.944Z,3.07
2023-02-02T13:44:19.832Z,2.99
2023-02-02T13:46:57.647Z,2.96
2023-02-02T13:49:33.957Z,2.89
2023-02-02T13:52:26.210Z,2.83
2023-02-02T13:55:27.244Z,2.80
2023-02-02T13:58:14.442Z,2.76
2023-02-02T14:00:50.416Z,2.75
2023-02-02T14:03:36.800Z,2.75
2023-02-02T14:06:17.426Z,2.72
2023-02-02T14:08:52.731Z,2.71
2023-02-02T14:11:33.982Z,2.69
2023-02-02T14:14:33.725Z,2.70
2023-02-02T14:17:12.012Z,2.69
2023-02-02T14:19:56.584Z,2.69
2023-02-02T14:22:48.276Z,2.71
2023-02-02T14:25:37.213Z,2.70
2023-02-02T14:28:14.956Z,2.67
2023-02-02T14:30:51.231Z,2.71
2023-02-02T14:33:29.160Z,2.66
2023-02-02T14:36:03.786Z,2.66
2023-02-02T14:38:48.016Z,2.65
2023-02-02T14:41:49.665Z,2.65
2023-02-02T14:44:22.681Z,2.66
2023-02-02T14:46:54.880Z,2.64
2023-02-02T14:49:29.825Z,2.65
2023-02-02T14:52:05.603Z,2.62
2023-02-02T14:54:41.205Z,2.60
2023-02-02T14:57:28.606Z,2.61
2023-02-02T15:00:01.992Z,2.60
2023-02-02T15:02:37.769Z,2.62
2023-02-02T15:05:35.444Z,2.65
2023-02-02T15:08:13.669Z,2.66
2023-02-02T15:10:57.511Z,2.67
2023-02-02T15:13:37.004Z,2.66
2023-02-02T15:16:15.101Z,2.69
2023-02-02T15:18:50.204Z,2.74
2023-02-02T15:21:24.654Z,2.74
2023-02-02T15:23:58.372Z,2.72
2023-02-02T15:26:36.514Z,2.70
2023-02-02T15:29:17.652Z,2.74
2023-02-02T15:31:54.556Z,2.74
2023-02-02T15:34:56.784Z,2.78
2023-02-02T15:37:35.649Z,2.75
2023-02-02T15:40:10.839Z,2.76
2023-02-02T15:42:54.823Z,2.77
2023-02-02T15:45:37.590Z,2.77
2023-02-02T15:48:12.709Z,2.74
2023-02-02T15:50:51.382Z,2.70
2023-02-02T15:53:26.399Z,2.72
2023-02-02T15:55:59.361Z,2.70
2023-02-02T15:58:34.337Z,2.70
2023-02-02T16:01:09.774Z,2.70
2023-02-02T16:03:53.656Z,2.66
2023-02-02T16:06:26.438Z,2.64
2023-02-02T16:08:59.096Z,2.63
2023-02-02T16:11:31.775Z,2.62
2023-02-02T16:14:07.242Z,2.59
2023-02-02T16:16:41.344Z,2.56
2023-02-02T16:19:26.779Z,2.55
2023-02-02T16:22:07.510Z,2.70
2023-02-02T16:24:42.839Z,2.60
2023-02-02T16:27:17.803Z,2.57
2023-02-02T16:29:50.966Z,2.57
2023-02-02T16:32:35.919Z,2.58
2023-02-02T16:35:27.515Z,2.52
2023-02-02T16:38:28.116Z,2.51
2023-02-02T16:41:11.507Z,2.54
2023-02-02T16:43:44.736Z,2.51
2023-02-02T16:46:19.014Z,2.48
2023-02-02T16:49:02.257Z,2.46
2023-02-02T16:51:37.299Z,2.44
2023-02-02T16:54:12.564Z,2.43
2023-02-02T16:56:47.467Z,2.47
2023-02-02T16:59:28.578Z,2.47
2023-02-02T17:02:03.893Z,2.47
2023-02-02T17:04:36.474Z,2.48
2023-02-02T17:07:16.166Z,2.50
2023-02-02T17:09:49.642Z,2.51
2023-02-02T17:12:34.527Z,2.51
2023-02-02T17:15:03.637Z,2.52
2023-02-02T17:17:36.094Z,2.51
2023-02-02T17:20:08.697Z,2.51
2023-02-02T17:22:44.514Z,2.50
2023-02-02T17:25:19.857Z,2.50
2023-02-02T17:27:52.801Z,2.46
2023-02-02T17:30:25.241Z,2.44
2023-02-02T17:32:57.240Z,2.44
2023-02-02T17:35:39.935Z,2.43
2023-02-02T17:38:03.497Z,2.43
2023-02-02T17:40:35.777Z,2.42
2023-02-02T17:43:10.665Z,2.43
2023-02-02T17:45:43.017Z,2.43
2023-02-02T17:48:16.526Z,2.39
2023-02-02T17:50:49.522Z,2.41
2023-02-02T17:53:23.533Z,2.41
2023-02-02T17:55:55.844Z,2.38
2023-02-02T17:58:28.144Z,2.40
2023-02-02T18:01:01.307Z,2.39
2023-02-02T18:03:36.278Z,2.38
2023-02-02T18:06:10.787Z,2.42
2023-02-02T18:08:42.493Z,2.43
2023-02-02T18:11:18.801Z,2.57
2023-02-02T18:13:50.852Z,2.43
2023-02-02T18:16:22.906Z,2.44
2023-02-02T18:18:55.451Z,2.41
2023-02-02T18:21:27.681Z,2.41
2023-02-02T18:24:00.107Z,2.44
2023-02-02T18:26:34.250Z,2.37
2023-02-02T18:29:05.815Z,2.37
2023-02-02T18:31:37.708Z,2.51
2023-02-02T18:34:09.861Z,2.38
2023-02-02T18:36:42.070Z,2.37
2023-02-02T18:39:14.107Z,2.34
2023-02-02T18:41:47.559Z,2.32
2023-02-02T18:44:19.746Z,2.26
2023-02-02T18:46:54.478Z,2.23
2023-02-02T18:49:26.577Z,2.16
2023-02-02T18:52:00.148Z,2.13
2023-02-02T18:54:35.867Z,2.14
2023-02-02T18:57:08.898Z,2.09
2023-02-02T18:59:42.993Z,2.06
2023-02-02T19:02:17.727Z,2.03
2023-02-02T19:05:00.738Z,2.04
2023-02-02T19:07:52.677Z,2.01
2023-02-02T19:10:27.609Z,2.00
2023-02-02T19:13:22.182Z,1.99
2023-02-02T19:15:56.099Z,1.96
2023-02-02T19:18:28.702Z,1.91
2023-02-02T19:21:01.053Z,1.90
2023-02-02T19:23:33.425Z,1.84
2023-02-02T19:26:08.741Z,1.79
2023-02-02T19:28:41.366Z,1.76
2023-02-02T19:31:16.324Z,1.75
2023-02-02T19:33:51.060Z,1.76
2023-02-02T19:36:25.069Z,1.77
2023-02-02T19:39:18.133Z,1.79
2023-02-02T19:41:51.531Z,1.75
2023-02-02T19:44:26.582Z,1.76
2023-02-02T19:47:00.313Z,1.75
2023-02-02T19:49:35.578Z,1.76
2023-02-02T19:52:11.589Z,1.72
2023-02-02T19:54:46.450Z,1.71
2023-02-02T19:57:41.144Z,1.70
2023-02-02T20:00:28.993Z,1.72
2023-02-02T20:03:07.777Z,1.70
2023-02-02T20:05:42.475Z,1.66
2023-02-02T20:08:26.573Z,1.64
2023-02-02T20:11:01.435Z,1.65
2023-02-02T20:13:42.691Z,1.61
2023-02-02T20:16:23.864Z,1.60
2023-02-02T20:18:58.824Z,1.58
2023-02-02T20:21:45.176Z,1.58
2023-02-02T20:24:29.142Z,1.57
2023-02-02T20:27:04.300Z,1.58
2023-02-02T20:29:44.217Z,1.60
2023-02-02T20:32:29.086Z,1.58
2023-02-02T20:35:02.640Z,1.63
2023-02-02T20:37:37.040Z,1.57
2023-02-02T20:40:14.704Z,1.53
2023-02-02T20:42:48.174Z,1.49
2023-02-02T20:45:21.962Z,1.46
2023-02-02T20:47:54.146Z,1.41
2023-02-02T20:50:26.624Z,1.39
2023-02-02T20:53:00.097Z,1.34
2023-02-02T20:55:33.824Z,1.33
2023-02-02T20:58:06.809Z,1.32
2023-02-02T21:00:39.758Z,1.31
2023-02-02T21:03:13.350Z,1.28
2023-02-02T21:05:45.689Z,1.24
2023-02-02T21:08:18.071Z,1.22
2023-02-02T21:10:50.043Z,1.24
2023-02-02T21:13:22.106Z,1.23
2023-02-02T21:15:54.461Z,1.22
2023-02-02T21:18:27.133Z,1.22
2023-02-02T21:20:59.496Z,1.25
2023-02-02T21:23:31.794Z,1.22
2023-02-02T21:26:03.690Z,1.19
2023-02-02T21:28:35.748Z,1.17
2023-02-02T21:31:12.181Z,1.17
2023-02-02T21:33:45.819Z,1.18
2023-02-02T21:36:48.728Z,1.18
2023-02-02T21:39:28.920Z,1.20
2023-02-02T21:42:15.677Z,1.19
2023-02-02T21:44:59.182Z,1.20
2023-02-02T21:47:37.121Z,1.19
2023-02-02T21:50:20.697Z,1.18
2023-02-02T21:52:52.749Z,1.17
2023-02-02T21:55:39.578Z,1.16
2023-02-02T21:58:26.256Z,1.17
2023-02-02T22:01:16.447Z,1.17
2023-02-02T22:03:50.109Z,1.21
2023-02-02T22:06:31.116Z,1.19
2023-02-02T22:09:18.158Z,1.17
2023-02-02T22:12:04.564Z,1.19
2023-02-02T22:14:42.347Z,1.18
2023-02-02T22:17:25.563Z,1.20
2023-02-02T22:20:03.016Z,1.21
2023-02-02T22:22:37.381Z,1.22
2023-02-02T22:25:22.906Z,1.25
2023-02-02T22:28:01.240Z,1.27
2023-02-02T22:30:39.579Z,1.28
2023-02-02T22:33:13.720Z,1.40
2023-02-02T22:35:46.683Z,1.30
2023-02-02T22:38:21.861Z,1.30
2023-02-02T22:40:54.501Z,1.32
2023-02-02T22:43:26.823Z,1.34
2023-02-02T22:45:59.089Z,1.38
2023-02-02T22:48:31.716Z,1.39
2023-02-02T22:51:03.690Z,1.39
2023-02-02T22:53:36.087Z,1.41
2023-02-02T22:56:08.562Z,1.43
2023-02-02T22:58:40.982Z,1.43
2023-02-02T23:01:13.984Z,1.43
2023-02-02T23:03:47.670Z,1.43
2023-02-02T23:06:19.759Z,1.43
2023-02-02T23:08:52.324Z,1.46
2023-02-02T23:11:24.337Z,1.47
2023-02-02T23:13:56.472Z,1.48
2023-02-02T23:16:28.628Z,1.48
2023-02-02T23:19:00.612Z,1.48
2023-02-02T23:21:33.113Z,1.51
2023-02-02T23:24:05.220Z,1.49
2023-02-02T23:26:37.160Z,1.49
2023-02-02T23:29:09.874Z,1.50
2023-02-02T23:31:42.963Z,1.52
2023-02-02T23:34:15.059Z,1.54
2023-02-02T23:36:47.112Z,1.54
2023-02-02T23:39:19.204Z,1.56
2023-02-02T23:41:51.209Z,1.58
2023-02-02T23:44:23.207Z,1.59
2023-02-02T23:46:55.566Z,1.60
2023-02-02T23:49:29.141Z,1.61
2023-02-02T23:52:01.774Z,1.64
2023-02-02T23:54:34.672Z,1.60
2023-02-02T23:57:06.799Z,1.59
2023-02-02T23:59:38.910Z,1.61
